Latest Coastal Weather Observations for Mardie

IDW60701

Issued at 8:12 am WST Thursday 29 January 2015 (issued every 10 minutes, with the page automatically refreshed every 10 minutes)

About coastal observations | Map of coastal stations | Coastal observations for WA | Marine services | Other Formats
Station Details ID: 005008 Name: MARDIE Lat: -21.19 Lon: 115.98 Height: 11.0 m
Data from the previous 72 hours. | See also: Recent months at Mardie
Date/Time
WST
Temp

°C
Wind Pressure Rain
since 9am
mm
Weather Cloud Vis
km
Sea
Height
m
Swell
Dir
 
Speed
knots
Gust
knots
hPa Trend Height
m
Period
s
Dir
29/08:00am 27.2 SW 9 12 1006.6 - 0.0 - - - - - - -
29/07:30am 26.7 SW 9 11 1006.4 - 0.0 - - - - - - -
29/07:00am 25.3 SW 8 10 1006.3 - 0.0 - - - - - - -
29/06:30am 24.6 SSW 5 7 1005.7 - 0.0 - - - - - - -
29/06:00am 24.2 SW 4 6 1005.5 - 0.0 - - - - - - -
29/05:30am 24.2 SW 4 7 1005.1 - 0.0 - - - - - - -
29/05:00am 24.6 WSW 4 5 1005.0 - 0.0 - - - - - - -
29/04:30am 24.5 WSW 4 6 1004.7 - 0.0 - - - - - - -
29/04:00am 24.7 W 6 8 1004.5 - 0.0 - - - - - - -
29/03:30am 25.0 WSW 6 8 1004.3 - 0.0 - - - - - - -
29/03:00am 25.2 WSW 8 10 1004.0 - 0.0 - - - - - - -
29/02:30am 25.6 WSW 8 11 1004.4 - 0.0 - - - - - - -
29/02:00am 25.9 WSW 9 12 1004.5 - 0.0 - - - - - - -
29/01:30am 26.2 WSW 9 12 1004.7 - 0.0 - - - - - - -
29/01:00am 26.4 WSW 8 11 1004.9 - 0.0 - - - - - - -
29/12:30am 26.6 WSW 8 10 1005.0 - 0.0 - - - - - - -
29/12:00am 26.6 WSW 8 11 1005.4 - 0.0 - - - - - - -
 
Date/Time
WST
Temp

°C
Wind Pressure Rain
since 9am
mm
Weather Cloud Vis
km
Sea
Height
m
Swell
Dir
 
Speed
knots
Gust
knots
hPa Trend Height
m
Period
s
Dir
28/11:30pm 26.7 W 8 11 1005.8 - 0.0 - - - - - - -
28/11:00pm 26.8 W 8 10 1005.9 - 0.0 - - - - - - -
28/10:30pm 27.0 WSW 10 14 1005.7 - 0.0 - - - - - - -
28/10:00pm 27.3 W 9 12 1005.5 - 0.0 - - - - - - -
28/09:30pm 27.2 W 9 13 1005.5 - 0.0 - - - - - - -
28/09:00pm 27.3 W 9 13 1005.2 - 0.0 - - - - - - -
28/08:30pm 27.4 W 9 14 1005.1 - 0.0 - - - - - - -
28/08:00pm 27.4 WNW 11 16 1004.9 - 0.0 - - - - - - -
28/07:30pm 27.4 WNW 11 15 1004.6 - 0.0 - - - - - - -
28/07:00pm 27.8 WNW 11 15 1004.3 - 0.0 - - - - - - -
28/06:30pm 28.4 WNW 13 18 1004.1 - 0.0 - - - - - - -
28/06:00pm 28.9 WNW 13 17 1004.0 - 0.0 - - - - - - -
28/05:30pm 29.6 WNW 13 18 1003.9 - 0.0 - - - - - - -
28/05:00pm 29.6 WNW 15 19 1003.6 - 0.0 - - - - - - -
28/04:30pm 30.0 WNW 14 19 1003.7 - 0.0 - - - - - - -
28/04:00pm 30.6 WNW 15 20 1003.8 - 0.0 - - - - - - -
28/03:30pm 30.9 WNW 14 19 1003.9 - 0.0 - - - - - - -
28/03:00pm 30.8 W 14 19 1004.1 - 0.0 - - - - - - -
28/02:30pm 31.3 WNW 13 19 1004.2 - 0.0 - - - - - - -
28/02:00pm 31.2 WNW 13 19 1004.5 - 0.0 - - - - - - -
28/01:30pm 30.7 WNW 11 17 1004.8 - 0.0 - - - - - - -
28/01:00pm 30.6 WNW 12 17 1005.1 - 0.0 - - - - - - -
28/12:30pm 30.8 WNW 12 16 1005.3 - 0.0 - - - - - - -
28/12:00pm 30.6 WNW 10 15 1005.6 - 0.0 - - - - - - -
28/11:30am 30.0 NW 8 13 1006.1 - 0.0 - - - - - - -
28/11:00am 29.9 NW 9 13 1006.3 - 0.0 - - - - - - -
28/10:30am 29.2 WNW 7 11 1006.5 - 0.0 - - - - - - -
28/10:00am 29.1 WNW 8 13 1006.9 - 0.0 - - - - - - -
28/09:30am 28.7 W 4 7 1007.1 - 0.0 - - - - - - -
28/09:00am 27.3 SW 4 7 1007.3 - 0.0 - - - - - - -
28/08:30am 26.6 SSW 5 8 1007.2 - 0.0 - - - - - - -
28/08:00am 26.1 SW 7 10 1007.0 - 0.0 - - - - - - -
28/07:30am 25.1 SW 8 11 1006.7 - 0.0 - - - - - - -
28/07:00am 24.2 SW 8 10 1006.4 - 0.0 - - - - - - -
28/06:30am 23.6 SW 8 10 1006.0 - 0.0 - - - - - - -
28/06:00am 23.4 SW 8 12 1005.6 - 0.0 - - - - - - -
28/05:30am 23.7 SW 8 11 1005.3 - 0.0 - - - - - - -
28/05:00am 23.9 SW 7 9 1005.1 - 0.0 - - - - - - -
28/04:30am 24.3 SW 7 10 1005.0 - 0.0 - - - - - - -
28/04:00am 24.6 SW 6 8 1005.1 - 0.0 - - - - - - -
28/03:30am 24.8 SW 5 7 1005.1 - 0.0 - - - - - - -
28/03:00am 25.2 SW 7 10 1004.8 - 0.0 - - - - - - -
28/02:30am 25.7 SW 7 9 1004.8 - 0.0 - - - - - - -
28/02:00am 26.2 WSW 8 11 1004.9 - 0.0 - - - - - - -
28/01:30am 25.9 W 4 5 1005.1 - 0.0 - - - - - - -
28/01:00am 26.1 W 4 6 1005.4 - 0.0 - - - - - - -
28/12:30am 26.4 W 5 6 1005.6 - 0.0 - - - - - - -
28/12:00am 26.5 W 7 9 1005.8 - 0.0 - - - - - - -
 
Date/Time
WST
Temp

°C
Wind Pressure Rain
since 9am
mm
Weather Cloud Vis
km
Sea
Height
m
Swell
Dir
 
Speed
knots
Gust
knots
hPa Trend Height
m
Period
s
Dir
27/11:30pm 26.6 W 6 8 1006.0 - 0.0 - - - - - - -
27/11:00pm 26.6 WNW 6 8 1005.9 - 0.0 - - - - - - -
27/10:30pm 26.7 W 6 9 1006.0 - 0.0 - - - - - - -
27/10:00pm 26.6 W 7 9 1005.9 - 0.0 - - - - - - -
27/09:30pm 26.7 W 6 9 1005.8 - 0.0 - - - - - - -
27/09:00pm 26.7 W 8 11 1005.7 - 0.0 - - - - - - -
27/08:30pm 26.8 W 9 11 1005.5 - 0.0 - - - - - - -
27/08:00pm 26.9 W 9 13 1005.5 - 0.0 - - - - - - -
27/07:30pm 27.1 W 9 13 1005.4 - 0.0 - - - - - - -
27/07:00pm 27.4 W 10 14 1005.4 - 0.0 - - - - - - -
27/06:30pm 28.1 WNW 11 16 1005.2 - 0.0 - - - - - - -
27/06:00pm 28.2 WNW 13 18 1004.9 - 0.0 - - - - - - -
27/05:30pm 28.7 WNW 13 18 1004.7 - 0.0 - - - - - - -
27/05:00pm 29.4 WNW 13 18 1004.5 - 0.0 - - - - - - -
27/04:30pm 30.1 W 12 18 1004.6 - 0.0 - - - - - - -
27/04:00pm 30.2 WNW 12 19 1004.6 - 0.0 - - - - - - -
27/03:30pm 30.9 WNW 12 17 1004.9 - 0.0 - - - - - - -
27/03:00pm 30.1 WNW 12 17 1004.9 - 0.0 - - - - - - -
27/02:30pm 30.5 WNW 12 19 1005.0 - 0.0 - - - - - - -
27/02:00pm 31.1 WNW 11 17 1005.2 - 0.0 - - - - - - -
27/01:30pm 30.2 WNW 9 14 1005.6 - 0.0 - - - - - - -
27/01:00pm 30.4 WNW 11 17 1005.9 - 0.0 - - - - - - -
27/12:30pm 31.0 WNW 10 15 1006.0 - 0.0 - - - - - - -
27/12:00pm 30.1 NW 7 12 1006.6 - 0.0 - - - - - - -
27/11:30am 30.4 W 8 12 1007.0 - 0.0 - - - - - - -
27/11:00am 29.7 WNW 8 12 1007.2 - 0.0 - - - - - - -
27/10:30am 29.3 W 6 10 1007.6 - 0.0 - - - - - - -
27/10:00am 29.2 NW 8 11 1007.7 - 0.0 - - - - - - -
27/09:30am 28.4 WNW 5 9 1007.5 - 0.0 - - - - - - -
27/09:00am 28.1 SW 6 11 1007.5 - 0.0 - - - - - - -
27/08:30am 26.8 SW 7 10 1007.6 - 0.0 - - - - - - -
27/08:00am 26.2 SW 7 9 1007.5 - 0.0 - - - - - - -
27/07:30am 25.1 SSW 8 11 1007.3 - 0.0 - - - - - - -
27/07:00am 24.5 SSW 8 10 1007.1 - 0.0 - - - - - - -
27/06:30am 23.2 SSW 4 7 1006.8 - 0.0 - - - - - - -
27/06:00am 22.9 SSW 3 4 1006.8 - 0.0 - - - - - - -
27/05:30am 23.2 SSW 3 6 1006.5 - 0.0 - - - - - - -
27/05:00am 23.4 SW 6 7 1006.0 - 0.0 - - - - - - -
27/04:30am 23.8 SW 7 9 1006.0 - 0.0 - - - - - - -
27/04:00am 24.2 SW 7 10 1005.8 - 0.0 - - - - - - -
27/03:30am 25.0 SW 8 10 1005.7 - 0.0 - - - - - - -
27/03:00am 25.5 WSW 7 9 1005.8 - 0.0 - - - - - - -
27/02:30am 25.8 WSW 7 9 1005.5 - 0.0 - - - - - - -
27/02:00am 26.3 WSW 6 10 1005.5 - 0.0 - - - - - - -
27/01:30am 26.9 W 4 6 1005.4 - 0.0 - - - - - - -
27/01:00am 26.8 W 4 6 1005.6 - 0.0 - - - - - - -
27/12:30am 26.5 WNW 4 6 1005.7 - 0.0 - - - - - - -
27/12:00am 26.4 W 4 7 1006.1 - 0.0 - - - - - - -
 
Date/Time
WST
Temp

°C
Wind Pressure Rain
since 9am
mm
Weather Cloud Vis
km
Sea
Height
m
Swell
Dir
 
Speed
knots
Gust
knots
hPa Trend Height
m
Period
s
Dir
26/11:30pm 26.5 W 5 8 1006.1 - 0.0 - - - - - - -
26/11:00pm 26.9 WSW 8 10 1006.3 - 0.0 - - - - - - -
26/10:30pm 27.1 W 7 10 1006.3 - 0.0 - - - - - - -
26/10:00pm 27.0 W 7 10 1006.2 - 0.0 - - - - - - -
26/09:30pm 27.1 W 7 9 1006.1 - 0.0 - - - - - - -
26/09:00pm 27.1 WNW 7 10 1005.8 - 0.0 - - - - - - -
26/08:30pm 27.4 WNW 7 10 1005.8 - 0.0 - - - - - - -
26/08:00pm 27.6 NW 6 9 1005.4 - 0.0 - - - - - - -
26/07:30pm 27.7 NW 9 11 1005.2 - 0.0 - - - - - - -
26/07:00pm 28.4 WNW 8 11 1005.1 - 0.0 - - - - - - -
26/06:30pm 28.6 NW 7 10 1004.9 - 0.0 - - - - - - -
26/06:00pm 29.3 NW 8 11 1005.0 - 0.0 - - - - - - -
26/05:30pm 29.9 NW 10 16 1004.9 - 0.0 - - - - - - -
26/05:00pm 30.6 NW 10 14 1004.6 - 0.0 - - - - - - -
26/04:30pm 31.1 NW 11 15 1004.6 - 0.0 - - - - - - -
26/04:00pm 31.5 NNW 9 16 1004.3 - 0.0 - - - - - - -
26/03:30pm 31.6 N 10 15 1004.6 - 0.0 - - - - - - -
26/03:00pm 31.1 N 10 14 1004.7 - 0.0 - - - - - - -
26/02:30pm 31.5 NNW 11 17 1004.8 - 0.0 - - - - - - -
26/02:00pm 32.0 N 10 17 1004.9 - 0.0 - - - - - - -
26/01:30pm 32.3 N 10 15 1005.2 - 0.0 - - - - - - -
26/01:00pm 31.9 N 10 17 1005.3 - 0.0 - - - - - - -
26/12:30pm 32.8 N 11 17 1005.4 - 0.0 - - - - - - -
26/12:00pm 32.6 N 10 20 1005.8 - 0.0 - - - - - - -
26/11:30am 32.4 NNE 11 18 1006.2 - 0.0 - - - - - - -
26/11:00am 31.2 N 10 17 1006.4 - 0.0 - - - - - - -
26/10:30am 31.7 N 10 14 1006.5 - 0.0 - - - - - - -
26/10:00am 32.5 NE 10 17 1006.8 - 0.0 - - - - - - -
26/09:30am 31.4 NE 10 15 1007.0 - 0.0 - - - - - - -
26/09:00am 30.2 ENE 10 14 1007.1 - 0.0 - - - - - - -
26/08:30am 29.7 ENE 10 14 1007.1 - 0.0 - - - - - - -

Other Formats:

Comma delimited format used in spreadsheet applications
http://www.bom.gov.au/fwo/IDW60701/IDW60701.94306.axf

JavaScript Object Notation format (JSON) in row-major order
http://www.bom.gov.au/fwo/IDW60701/IDW60701.94306.json